createdAt,value
2022-11-08T00:00:45.588Z,20.06
2022-11-08T00:02:43.879Z,20.00
2022-11-08T00:04:42.262Z,20.00
2022-11-08T00:06:57.677Z,20.00
2022-11-08T00:09:13.431Z,19.94
2022-11-08T00:11:29.297Z,19.94
2022-11-08T00:13:44.780Z,19.88
2022-11-08T00:15:42.973Z,19.88
2022-11-08T00:17:40.980Z,19.88
2022-11-08T00:19:39.246Z,19.81
2022-11-08T00:21:37.574Z,19.81
2022-11-08T00:23:35.977Z,19.81
2022-11-08T00:25:34.386Z,19.75
2022-11-08T00:27:32.374Z,19.75
2022-11-08T00:29:30.385Z,19.75
2022-11-08T00:31:28.802Z,19.75
2022-11-08T00:33:27.177Z,19.69
2022-11-08T00:35:25.113Z,19.69
2022-11-08T00:37:23.334Z,19.69
2022-11-08T00:39:21.362Z,19.63
2022-11-08T00:41:19.558Z,20.25
2022-11-08T00:43:17.565Z,21.00
2022-11-08T00:45:15.678Z,21.13
2022-11-08T00:47:13.692Z,21.31
2022-11-08T00:49:11.700Z,21.50
2022-11-08T00:51:09.915Z,21.69
2022-11-08T00:53:08.246Z,21.88
2022-11-08T00:55:06.244Z,22.00
2022-11-08T00:57:04.256Z,22.13
2022-11-08T00:59:02.263Z,22.25
2022-11-08T01:01:00.325Z,22.31
2022-11-08T01:03:12.505Z,22.44
2022-11-08T01:05:10.705Z,22.50
2022-11-08T01:07:08.935Z,22.50
2022-11-08T01:09:07.147Z,21.50
2022-11-08T01:11:05.115Z,21.38
2022-11-08T01:13:03.503Z,21.25
2022-11-08T01:15:01.628Z,21.19
2022-11-08T01:16:59.912Z,21.13
2022-11-08T01:18:58.335Z,21.00
2022-11-08T01:20:56.290Z,20.94
2022-11-08T01:22:54.495Z,20.88
2022-11-08T01:24:52.528Z,20.75
2022-11-08T01:26:50.647Z,20.69
2022-11-08T01:28:48.674Z,20.63
2022-11-08T01:30:47.105Z,20.56
2022-11-08T01:32:45.431Z,20.50
2022-11-08T01:34:43.706Z,20.44
2022-11-08T01:36:41.769Z,20.44
2022-11-08T01:38:39.989Z,20.38
2022-11-08T01:40:38.002Z,20.31
2022-11-08T01:42:36.011Z,20.25
2022-11-08T01:44:34.237Z,20.25
2022-11-08T01:46:31.423Z,20.19
2022-11-08T01:48:29.730Z,20.13
2022-11-08T01:50:27.937Z,20.06
2022-11-08T01:52:25.933Z,20.06
2022-11-08T01:54:24.126Z,20.00
2022-11-08T01:56:22.128Z,20.00
2022-11-08T01:58:20.492Z,19.94
2022-11-08T02:00:18.687Z,19.94
2022-11-08T02:02:16.980Z,19.88
2022-11-08T02:04:15.015Z,19.88
2022-11-08T02:06:13.237Z,19.81
2022-11-08T02:08:11.439Z,19.81
2022-11-08T02:10:09.448Z,19.81
2022-11-08T02:12:07.459Z,19.75
2022-11-08T02:14:05.692Z,19.75
2022-11-08T02:16:03.746Z,19.69
2022-11-08T02:18:01.743Z,19.69
2022-11-08T02:19:59.948Z,19.69
2022-11-08T02:21:58.182Z,19.63
2022-11-08T02:23:56.380Z,19.63
2022-11-08T02:25:54.615Z,19.88
2022-11-08T02:27:52.860Z,20.94
2022-11-08T02:29:51.043Z,21.00
2022-11-08T02:31:49.384Z,21.25
2022-11-08T02:33:47.392Z,21.38
2022-11-08T02:35:45.805Z,21.56
2022-11-08T02:37:43.827Z,21.75
2022-11-08T02:39:43.095Z,21.81
2022-11-08T02:41:41.153Z,21.94
2022-11-08T02:43:39.345Z,22.00
2022-11-08T02:45:37.406Z,22.06
2022-11-08T02:47:35.797Z,22.13
2022-11-08T02:49:34.125Z,21.19
2022-11-08T02:51:32.160Z,21.06
2022-11-08T02:53:30.136Z,21.00
2022-11-08T02:55:28.146Z,20.88
2022-11-08T02:57:26.192Z,20.81
2022-11-08T02:59:24.504Z,20.75
2022-11-08T03:01:22.584Z,20.69
2022-11-08T03:03:20.650Z,20.63
2022-11-08T03:05:18.803Z,20.56
2022-11-08T03:07:20.738Z,20.44
2022-11-08T03:09:21.719Z,20.44
2022-11-08T03:11:19.839Z,20.38
2022-11-08T03:13:18.050Z,20.31
2022-11-08T03:15:16.137Z,20.25
2022-11-08T03:17:14.330Z,20.19
2022-11-08T03:19:13.244Z,20.13
2022-11-08T03:21:11.285Z,20.13
2022-11-08T03:23:09.301Z,20.06
2022-11-08T03:25:07.300Z,20.00
2022-11-08T03:27:05.319Z,20.00
2022-11-08T03:29:03.342Z,19.94
2022-11-08T03:31:01.687Z,19.94
2022-11-08T03:32:59.688Z,19.88
2022-11-08T03:34:59.626Z,19.88
2022-11-08T03:36:57.839Z,19.81
2022-11-08T03:38:55.815Z,19.81
2022-11-08T03:40:53.831Z,19.75
2022-11-08T03:42:51.863Z,19.69
2022-11-08T03:44:50.064Z,19.69
2022-11-08T03:46:48.387Z,19.69
2022-11-08T03:48:46.371Z,19.63
2022-11-08T03:50:44.796Z,19.63
2022-11-08T03:52:42.911Z,19.63
2022-11-08T03:54:40.955Z,19.63
2022-11-08T03:56:39.040Z,20.94
2022-11-08T03:58:37.310Z,20.88
2022-11-08T04:00:35.716Z,21.06
2022-11-08T04:02:33.776Z,21.25
2022-11-08T04:04:31.882Z,21.31
2022-11-08T04:06:29.928Z,21.44
2022-11-08T04:08:27.942Z,21.56
2022-11-08T04:10:25.974Z,21.63
2022-11-08T04:12:41.637Z,20.81
2022-11-08T04:14:57.457Z,20.69
2022-11-08T04:16:55.664Z,20.56
2022-11-08T04:19:11.419Z,20.50
2022-11-08T04:21:23.314Z,20.44
2022-11-08T04:23:21.353Z,20.31
2022-11-08T04:25:19.365Z,20.25
2022-11-08T04:27:17.405Z,20.25
2022-11-08T04:29:15.439Z,20.19
2022-11-08T04:31:13.478Z,20.13
2022-11-08T04:33:11.687Z,20.06
2022-11-08T04:35:09.898Z,20.06
2022-11-08T04:37:07.907Z,20.00
2022-11-08T04:39:05.909Z,19.94
2022-11-08T04:41:03.964Z,19.88
2022-11-08T04:43:01.913Z,19.88
2022-11-08T04:45:00.323Z,19.81
2022-11-08T04:46:59.031Z,19.81
2022-11-08T04:48:57.014Z,19.75
2022-11-08T04:50:55.436Z,19.69
2022-11-08T04:52:53.720Z,19.69
2022-11-08T04:54:52.085Z,19.63
2022-11-08T04:56:50.117Z,19.63
2022-11-08T04:58:48.448Z,19.63
2022-11-08T05:00:46.469Z,19.56
2022-11-08T05:02:44.816Z,21.00
2022-11-08T05:04:42.864Z,20.88
2022-11-08T05:06:41.054Z,21.00
2022-11-08T05:08:39.256Z,21.19
2022-11-08T05:10:37.266Z,21.31
2022-11-08T05:12:35.291Z,21.44
2022-11-08T05:14:33.688Z,21.56
2022-11-08T05:16:31.941Z,21.63
2022-11-08T05:18:30.150Z,21.75
2022-11-08T05:20:46.053Z,20.75
2022-11-08T05:23:01.725Z,20.63
2022-11-08T05:24:59.729Z,20.56
2022-11-08T05:26:57.793Z,20.50
2022-11-08T05:28:56.025Z,20.44
2022-11-08T05:30:54.237Z,20.38
2022-11-08T05:32:52.710Z,20.25
2022-11-08T05:34:51.103Z,20.25
2022-11-08T05:36:49.112Z,20.13
2022-11-08T05:38:47.141Z,20.13
2022-11-08T05:40:45.325Z,20.06
2022-11-08T05:42:43.345Z,20.00
2022-11-08T05:44:41.559Z,19.94
2022-11-08T05:46:39.575Z,19.88
2022-11-08T05:48:37.804Z,19.88
2022-11-08T05:50:35.996Z,19.81
2022-11-08T05:52:34.035Z,19.75
2022-11-08T05:54:32.488Z,19.75
2022-11-08T05:56:30.719Z,19.69
2022-11-08T05:58:28.746Z,19.69
2022-11-08T06:00:26.977Z,19.63
2022-11-08T06:02:25.266Z,19.63
2022-11-08T06:04:23.819Z,19.56
2022-11-08T06:06:21.950Z,19.69
2022-11-08T06:08:19.936Z,20.94
2022-11-08T06:10:18.400Z,20.94
2022-11-08T06:12:16.413Z,21.13
2022-11-08T06:14:14.395Z,21.31
2022-11-08T06:16:12.638Z,21.44
2022-11-08T06:18:10.848Z,22.38
2022-11-08T06:20:09.452Z,22.81
2022-11-08T06:22:07.513Z,23.13
2022-11-08T06:24:05.779Z,23.19
2022-11-08T06:26:03.801Z,22.75
2022-11-08T06:28:01.791Z,21.63
2022-11-08T06:29:59.853Z,21.44
2022-11-08T06:31:58.994Z,21.31
2022-11-08T06:33:57.407Z,21.19
2022-11-08T06:35:55.422Z,21.13
2022-11-08T06:37:59.878Z,21.00
2022-11-08T06:39:59.070Z,20.88
2022-11-08T06:41:57.496Z,20.81
2022-11-08T06:43:55.734Z,20.69
2022-11-08T06:45:53.810Z,20.63
2022-11-08T06:47:52.274Z,20.56
2022-11-08T06:49:50.307Z,20.50
2022-11-08T06:51:48.311Z,20.44
2022-11-08T06:53:46.748Z,20.38
2022-11-08T06:55:44.816Z,20.31
2022-11-08T06:57:42.804Z,20.25
2022-11-08T06:59:41.367Z,20.19
2022-11-08T07:01:43.325Z,21.69
2022-11-08T07:03:43.780Z,21.69
2022-11-08T07:05:42.099Z,22.13
2022-11-08T07:07:40.734Z,22.63
2022-11-08T07:09:38.961Z,22.94
2022-11-08T07:11:37.001Z,23.44
2022-11-08T07:13:35.342Z,23.81
2022-11-08T07:15:33.556Z,24.19
2022-11-08T07:17:37.243Z,24.56
2022-11-08T07:19:36.828Z,24.94
2022-11-08T07:21:34.841Z,25.25
2022-11-08T07:23:32.932Z,25.69
2022-11-08T07:25:30.989Z,26.06
2022-11-08T07:27:29.087Z,26.38
2022-11-08T07:29:27.351Z,26.69
2022-11-08T07:31:25.612Z,26.94
2022-11-08T07:33:23.650Z,27.25
2022-11-08T07:35:22.011Z,27.44
2022-11-08T07:37:20.020Z,27.69
2022-11-08T07:39:18.240Z,27.88
2022-11-08T07:41:16.440Z,28.00
2022-11-08T07:43:14.467Z,28.13
2022-11-08T07:45:12.561Z,28.25
2022-11-08T07:47:10.627Z,28.38
2022-11-08T07:49:08.849Z,28.38
2022-11-08T07:51:06.863Z,28.44
2022-11-08T07:53:05.209Z,28.50
2022-11-08T07:55:03.297Z,28.50
2022-11-08T07:57:01.506Z,28.50
2022-11-08T07:58:59.530Z,28.50
2022-11-08T08:00:57.530Z,28.50
2022-11-08T08:02:55.621Z,28.44
2022-11-08T08:04:53.644Z,28.44
2022-11-08T08:06:51.647Z,28.38
2022-11-08T08:08:49.889Z,28.31
2022-11-08T08:10:47.847Z,28.25
2022-11-08T08:12:45.800Z,28.19
2022-11-08T08:14:43.820Z,28.13
2022-11-08T08:16:42.186Z,28.06
2022-11-08T08:18:40.248Z,28.00
2022-11-08T08:20:38.475Z,27.88
2022-11-08T08:22:36.903Z,27.81
2022-11-08T08:24:35.067Z,27.75
2022-11-08T08:26:33.286Z,27.69
2022-11-08T08:28:31.460Z,27.63
2022-11-08T08:30:29.685Z,27.56
2022-11-08T08:32:31.402Z,27.50
2022-11-08T08:34:29.740Z,27.44
2022-11-08T08:36:27.771Z,27.38
2022-11-08T08:38:25.788Z,27.38
2022-11-08T08:40:23.894Z,27.38
2022-11-08T08:42:21.962Z,27.31
2022-11-08T08:44:20.151Z,27.31
2022-11-08T08:46:18.124Z,27.25
2022-11-08T08:48:16.115Z,27.25
2022-11-08T08:50:14.332Z,27.19
2022-11-08T08:52:12.361Z,27.25
2022-11-08T08:54:11.597Z,27.19
2022-11-08T08:56:09.786Z,27.25
2022-11-08T08:58:07.810Z,27.25
2022-11-08T09:02:23.877Z,27.31
2022-11-08T09:04:22.113Z,27.25
2022-11-08T09:06:20.298Z,27.31
2022-11-08T09:08:19.480Z,27.31
2022-11-08T09:10:17.508Z,27.31
2022-11-08T09:12:15.551Z,27.38
2022-11-08T09:14:13.591Z,27.38
2022-11-08T09:16:13.733Z,27.44
2022-11-08T09:18:11.827Z,27.50
2022-11-08T09:20:10.490Z,27.50
2022-11-08T09:22:08.554Z,27.50
2022-11-08T09:24:06.750Z,27.56
2022-11-08T09:26:05.070Z,27.56
2022-11-08T09:28:03.309Z,27.63
2022-11-08T09:30:01.346Z,27.63
2022-11-08T09:31:59.323Z,27.56
2022-11-08T09:33:57.387Z,27.63
2022-11-08T09:35:55.428Z,27.69
2022-11-08T09:37:53.413Z,27.69
2022-11-08T09:39:51.458Z,28.56
2022-11-08T09:41:52.920Z,28.94
2022-11-08T09:43:53.929Z,29.13
2022-11-08T09:45:53.093Z,29.13
2022-11-08T09:47:53.123Z,28.50
2022-11-08T09:49:51.312Z,28.06
2022-11-08T09:51:49.406Z,27.94
2022-11-08T09:53:47.483Z,27.81
2022-11-08T09:55:45.552Z,27.81
2022-11-08T09:57:43.805Z,27.81
2022-11-08T09:59:41.799Z,27.69
2022-11-08T10:01:40.206Z,27.63
2022-11-08T10:03:38.322Z,27.56
2022-11-08T10:05:36.536Z,27.56
2022-11-08T10:07:34.649Z,27.50
2022-11-08T10:09:32.692Z,27.44
2022-11-08T10:11:30.724Z,27.44
2022-11-08T10:13:28.790Z,27.44
2022-11-08T10:15:26.830Z,27.38
2022-11-08T10:17:25.688Z,27.31
2022-11-08T10:19:23.722Z,27.31
2022-11-08T10:21:22.004Z,27.25
2022-11-08T10:23:21.738Z,27.25
2022-11-08T10:25:20.490Z,27.25
2022-11-08T10:27:18.475Z,27.19
2022-11-08T10:29:17.474Z,27.25
2022-11-08T10:31:15.797Z,27.19
2022-11-08T10:33:14.066Z,27.19
2022-11-08T10:35:12.094Z,27.19
2022-11-08T10:37:10.259Z,27.19
2022-11-08T10:39:08.850Z,27.25
2022-11-08T10:41:07.110Z,27.19
2022-11-08T10:43:09.230Z,27.19
2022-11-08T10:45:07.961Z,27.25
2022-11-08T10:47:06.684Z,27.25
2022-11-08T10:49:04.734Z,27.25
2022-11-08T10:51:03.002Z,27.25
2022-11-08T10:53:01.216Z,27.31
2022-11-08T10:54:59.494Z,27.31
2022-11-08T10:56:57.919Z,27.31
2022-11-08T10:58:55.963Z,27.31
2022-11-08T11:01:03.181Z,27.31
2022-11-08T11:03:01.670Z,27.31
2022-11-08T11:04:59.728Z,27.38
2022-11-08T11:06:58.039Z,27.38
2022-11-08T11:08:56.135Z,27.38
2022-11-08T11:10:54.136Z,27.44
2022-11-08T11:12:52.384Z,27.44
2022-11-08T11:14:50.410Z,27.44
2022-11-08T11:16:48.701Z,27.75
2022-11-08T11:18:46.881Z,28.75
2022-11-08T11:20:45.184Z,29.13
2022-11-08T11:22:43.227Z,29.38
2022-11-08T11:24:41.252Z,28.94
2022-11-08T11:26:39.462Z,28.25
2022-11-08T11:28:37.692Z,28.13
2022-11-08T11:30:35.697Z,28.06
2022-11-08T11:32:33.754Z,28.00
2022-11-08T11:34:32.402Z,27.94
2022-11-08T11:36:30.746Z,27.94
2022-11-08T11:38:28.997Z,27.88
2022-11-08T11:40:27.080Z,27.81
2022-11-08T11:42:44.500Z,27.75
2022-11-08T11:44:43.430Z,27.75
2022-11-08T11:46:41.886Z,27.69
2022-11-08T11:48:40.197Z,27.63
2022-11-08T11:50:38.320Z,27.63
2022-11-08T11:52:36.545Z,27.69
2022-11-08T11:54:34.833Z,27.63
2022-11-08T11:56:33.050Z,27.63
2022-11-08T11:58:31.169Z,27.56
2022-11-08T12:00:29.140Z,27.63
2022-11-08T12:02:27.272Z,27.63
2022-11-08T12:04:25.651Z,27.63
2022-11-08T12:06:23.876Z,27.56
2022-11-08T12:08:22.471Z,27.56
2022-11-08T12:10:20.498Z,27.63
2022-11-08T12:12:18.726Z,27.75
2022-11-08T12:14:17.145Z,27.75
2022-11-08T12:16:15.257Z,27.69
2022-11-08T12:18:25.777Z,27.69
2022-11-08T12:20:29.051Z,27.69
2022-11-08T12:22:27.060Z,27.69
2022-11-08T12:24:25.082Z,27.69
2022-11-08T12:26:23.342Z,27.63
2022-11-08T12:28:21.426Z,27.63
2022-11-08T12:30:19.722Z,27.75
2022-11-08T12:32:17.916Z,27.81
2022-11-08T12:34:16.640Z,27.81
2022-11-08T12:36:14.676Z,27.75
2022-11-08T12:38:12.816Z,27.75
2022-11-08T12:40:11.605Z,27.81
2022-11-08T12:42:09.776Z,27.88
2022-11-08T12:44:08.581Z,27.88
2022-11-08T12:46:06.813Z,27.81
2022-11-08T12:48:05.153Z,27.81
2022-11-08T12:50:03.374Z,27.88
2022-11-08T12:52:01.586Z,27.88
2022-11-08T12:53:59.786Z,27.88
2022-11-08T12:55:57.805Z,29.19
2022-11-08T12:57:56.187Z,29.63
2022-11-08T12:59:54.511Z,29.81
2022-11-08T13:01:52.740Z,29.63
2022-11-08T13:03:50.747Z,28.94
2022-11-08T13:05:49.064Z,27.56
2022-11-08T13:07:47.292Z,27.25
2022-11-08T13:09:45.370Z,27.06
2022-11-08T13:11:43.412Z,26.88
2022-11-08T13:13:41.838Z,26.63
2022-11-08T13:15:40.089Z,26.44
2022-11-08T13:17:38.401Z,26.25
2022-11-08T13:19:36.640Z,26.06
2022-11-08T13:21:38.027Z,25.88
2022-11-08T13:23:36.160Z,25.69
2022-11-08T13:25:34.365Z,25.56
2022-11-08T13:27:32.580Z,25.38
2022-11-08T13:29:30.555Z,27.06
2022-11-08T13:31:28.786Z,26.75
2022-11-08T13:33:27.277Z,26.56
2022-11-08T13:35:25.496Z,26.69
2022-11-08T13:37:23.811Z,26.69
2022-11-08T13:39:21.863Z,26.81
2022-11-08T13:41:20.192Z,26.94
2022-11-08T13:43:18.191Z,27.00
2022-11-08T13:45:16.161Z,27.06
2022-11-08T13:47:14.568Z,27.13
2022-11-08T13:49:12.808Z,27.19
2022-11-08T13:51:10.857Z,27.31
2022-11-08T13:53:09.192Z,27.31
2022-11-08T13:55:07.480Z,27.38
2022-11-08T13:57:05.938Z,27.44
2022-11-08T13:59:04.352Z,27.50
2022-11-08T14:01:02.415Z,27.50
2022-11-08T14:03:00.449Z,27.56
2022-11-08T14:04:58.515Z,27.63
2022-11-08T14:06:56.827Z,27.63
2022-11-08T14:08:55.184Z,27.69
2022-11-08T14:10:53.240Z,27.69
2022-11-08T14:12:51.296Z,27.75
2022-11-08T14:14:49.362Z,27.75
2022-11-08T14:16:47.383Z,27.81
2022-11-08T14:18:45.433Z,27.81
2022-11-08T14:20:43.804Z,27.81
2022-11-08T14:22:45.055Z,27.88
2022-11-08T14:24:45.494Z,27.88
2022-11-08T14:26:43.515Z,27.88
2022-11-08T14:28:41.963Z,27.94
2022-11-08T14:30:39.977Z,27.94
2022-11-08T14:32:38.008Z,27.94
2022-11-08T14:34:36.262Z,28.00
2022-11-08T14:36:34.486Z,28.00
2022-11-08T14:38:32.683Z,28.00
2022-11-08T14:40:30.737Z,28.06
2022-11-08T14:42:28.820Z,28.06
2022-11-08T14:44:27.411Z,28.06
2022-11-08T14:46:25.786Z,28.13
2022-11-08T14:48:23.908Z,28.13
2022-11-08T14:50:22.541Z,28.13
2022-11-08T14:52:23.198Z,28.13
2022-11-08T14:54:21.259Z,28.13
2022-11-08T14:56:19.383Z,28.13
2022-11-08T14:58:17.536Z,29.19
2022-11-08T15:00:16.108Z,29.75
2022-11-08T15:02:14.332Z,30.00
2022-11-08T15:04:13.135Z,30.06
2022-11-08T15:06:14.179Z,29.56
2022-11-08T15:08:12.587Z,28.06
2022-11-08T15:10:10.566Z,27.63
2022-11-08T15:12:08.638Z,27.44
2022-11-08T15:14:06.836Z,27.19
2022-11-08T15:16:05.106Z,27.00
2022-11-08T15:18:03.362Z,26.81
2022-11-08T15:20:01.378Z,26.56
2022-11-08T15:21:59.595Z,26.38
2022-11-08T15:23:57.953Z,26.19
2022-11-08T15:25:56.208Z,26.06
2022-11-08T15:27:54.773Z,25.88
2022-11-08T15:29:52.851Z,25.75
2022-11-08T15:31:50.864Z,25.56
2022-11-08T15:33:49.123Z,25.44
2022-11-08T15:35:47.152Z,25.31
2022-11-08T15:37:46.879Z,26.94
2022-11-08T15:39:46.077Z,26.56
2022-11-08T15:41:44.136Z,26.63
2022-11-08T15:43:42.684Z,26.69
2022-11-08T15:45:40.746Z,26.81
2022-11-08T15:47:38.822Z,26.94
2022-11-08T15:49:36.855Z,27.00
2022-11-08T15:51:35.104Z,27.06
2022-11-08T15:53:33.156Z,27.19
2022-11-08T15:55:31.182Z,27.25
2022-11-08T15:57:29.409Z,27.38
2022-11-08T15:59:27.610Z,27.44
2022-11-08T16:01:25.755Z,27.25
2022-11-08T16:03:23.816Z,26.19
2022-11-08T16:05:23.052Z,26.00
2022-11-08T16:07:21.462Z,25.81
2022-11-08T16:09:19.755Z,25.69
2022-11-08T16:11:17.815Z,25.50
2022-11-08T16:13:15.915Z,25.38
2022-11-08T16:15:14.057Z,25.25
2022-11-08T16:17:12.324Z,25.13
2022-11-08T16:19:10.762Z,25.00
2022-11-08T16:21:08.897Z,24.88
2022-11-08T16:23:07.131Z,24.75
2022-11-08T16:25:05.110Z,24.63
2022-11-08T16:27:03.280Z,24.50
2022-11-08T16:29:01.340Z,24.44
2022-11-08T16:30:59.380Z,24.31
2022-11-08T16:32:57.699Z,24.25
2022-11-08T16:34:56.113Z,24.13
2022-11-08T16:36:54.687Z,24.06
2022-11-08T16:38:53.349Z,24.00
2022-11-08T16:40:51.443Z,23.88
2022-11-08T16:42:49.481Z,23.81
2022-11-08T16:44:47.697Z,23.75
2022-11-08T16:46:45.707Z,23.69
2022-11-08T16:48:43.754Z,23.63
2022-11-08T16:50:41.953Z,23.56
2022-11-08T16:52:40.193Z,23.50
2022-11-08T16:54:38.458Z,23.44
2022-11-08T16:56:37.129Z,23.38
2022-11-08T16:58:35.485Z,23.31
2022-11-08T17:00:33.817Z,23.25
2022-11-08T17:02:32.031Z,23.19
2022-11-08T17:04:30.048Z,23.19
2022-11-08T17:06:28.146Z,23.13
2022-11-08T17:08:26.461Z,23.06
2022-11-08T17:10:24.496Z,23.00
2022-11-08T17:12:22.560Z,23.00
2022-11-08T17:14:20.885Z,22.94
2022-11-08T17:16:20.150Z,22.88
2022-11-08T17:18:18.799Z,22.88
2022-11-08T17:20:17.264Z,22.81
2022-11-08T17:22:15.517Z,22.75
2022-11-08T17:24:20.921Z,22.75
2022-11-08T17:26:19.785Z,22.69
2022-11-08T17:28:18.189Z,22.69
2022-11-08T17:30:16.762Z,22.63
2022-11-08T17:32:15.012Z,22.63
2022-11-08T17:34:13.210Z,22.56
2022-11-08T17:36:11.450Z,22.56
2022-11-08T17:38:09.510Z,22.50
2022-11-08T17:40:07.782Z,22.50
2022-11-08T17:42:05.892Z,22.44
2022-11-08T17:44:04.018Z,22.44
2022-11-08T17:46:03.270Z,22.38
2022-11-08T17:48:01.304Z,22.38
2022-11-08T17:49:59.557Z,22.31
2022-11-08T17:51:57.788Z,22.31
2022-11-08T17:53:55.803Z,22.25
2022-11-08T17:55:54.441Z,22.25
2022-11-08T17:57:52.492Z,22.19
2022-11-08T17:59:50.537Z,22.19
2022-11-08T18:01:48.662Z,22.19
2022-11-08T18:03:46.732Z,22.13
2022-11-08T18:05:44.946Z,22.13
2022-11-08T18:07:43.002Z,22.06
2022-11-08T18:09:41.192Z,22.06
2022-11-08T18:11:39.272Z,22.06
2022-11-08T18:13:37.554Z,22.00
2022-11-08T18:15:35.882Z,22.00
2022-11-08T18:17:33.949Z,21.94
2022-11-08T18:19:32.282Z,21.94
2022-11-08T18:21:30.313Z,21.94
2022-11-08T18:23:28.333Z,21.94
2022-11-08T18:25:26.742Z,21.88
2022-11-08T18:27:25.166Z,21.88
2022-11-08T18:29:23.369Z,21.81
2022-11-08T18:31:21.630Z,21.81
2022-11-08T18:33:19.962Z,21.81
2022-11-08T18:35:18.706Z,21.81
2022-11-08T18:37:17.062Z,21.75
2022-11-08T18:39:18.456Z,21.75
2022-11-08T18:41:18.124Z,21.69
2022-11-08T18:43:16.466Z,21.69
2022-11-08T18:45:14.659Z,21.69
2022-11-08T18:47:12.894Z,21.69
2022-11-08T18:49:10.988Z,21.63
2022-11-08T18:51:09.021Z,21.63
2022-11-08T18:53:09.353Z,21.63
2022-11-08T18:55:07.379Z,21.56
2022-11-08T18:57:05.615Z,21.56
2022-11-08T18:59:03.673Z,21.56
2022-11-08T19:01:01.946Z,21.56
2022-11-08T19:03:00.126Z,21.50
2022-11-08T19:04:58.681Z,21.50
2022-11-08T19:06:56.773Z,21.50
2022-11-08T19:08:55.035Z,21.50
2022-11-08T19:10:53.069Z,22.44
2022-11-08T19:12:51.299Z,22.88
2022-11-08T19:14:49.459Z,23.00
2022-11-08T19:16:47.607Z,23.31
2022-11-08T19:18:45.698Z,23.56
2022-11-08T19:20:43.733Z,23.75
2022-11-08T19:22:42.873Z,24.00
2022-11-08T19:24:40.927Z,24.25
2022-11-08T19:26:39.512Z,24.38
2022-11-08T19:28:37.580Z,24.44
2022-11-08T19:30:35.738Z,24.63
2022-11-08T19:32:33.798Z,24.75
2022-11-08T19:34:33.613Z,24.81
2022-11-08T19:36:32.419Z,24.88
2022-11-08T19:38:30.426Z,24.94
2022-11-08T19:40:32.095Z,25.00
2022-11-08T19:42:30.629Z,25.06
2022-11-08T19:44:28.605Z,25.06
2022-11-08T19:46:26.902Z,24.13
2022-11-08T19:48:24.928Z,23.88
2022-11-08T19:50:23.084Z,23.75
2022-11-08T19:52:21.105Z,23.69
2022-11-08T19:54:19.323Z,23.56
2022-11-08T19:56:17.561Z,23.44
2022-11-08T19:58:16.106Z,23.38
2022-11-08T20:00:15.515Z,23.25
2022-11-08T20:02:13.568Z,23.13
2022-11-08T20:04:11.662Z,23.06
2022-11-08T20:06:10.008Z,23.00
2022-11-08T20:08:09.708Z,22.88
2022-11-08T20:10:07.756Z,22.81
2022-11-08T20:12:06.406Z,22.75
2022-11-08T20:14:04.680Z,22.69
2022-11-08T20:16:02.715Z,22.63
2022-11-08T20:18:01.053Z,22.56
2022-11-08T20:19:59.281Z,22.50
2022-11-08T20:21:57.532Z,22.44
2022-11-08T20:23:55.942Z,22.38
2022-11-08T20:25:54.369Z,22.31
2022-11-08T20:27:52.457Z,22.25
2022-11-08T20:29:50.513Z,22.19
2022-11-08T20:31:48.782Z,22.13
2022-11-08T20:33:46.807Z,22.13
2022-11-08T20:35:46.091Z,22.06
2022-11-08T20:37:44.143Z,22.00
2022-11-08T20:39:42.613Z,22.00
2022-11-08T20:41:41.107Z,21.94
2022-11-08T20:43:39.243Z,21.88
2022-11-08T20:45:37.282Z,21.88
2022-11-08T20:47:35.920Z,21.81
2022-11-08T20:49:34.178Z,21.75
2022-11-08T20:51:32.444Z,21.75
2022-11-08T20:53:30.475Z,21.69
2022-11-08T20:55:29.656Z,21.69
2022-11-08T20:57:27.700Z,21.63
2022-11-08T20:59:26.016Z,21.63
2022-11-08T21:01:24.426Z,21.56
2022-11-08T21:03:22.784Z,21.56
2022-11-08T21:05:20.818Z,21.50
2022-11-08T21:08:01.246Z,21.50
2022-11-08T21:09:48.530Z,21.44
2022-11-08T21:11:48.258Z,21.44
2022-11-08T21:13:46.673Z,21.44
2022-11-08T21:15:45.120Z,21.38
2022-11-08T21:17:43.374Z,21.38
2022-11-08T21:19:41.581Z,21.31
2022-11-08T21:21:39.883Z,21.31
2022-11-08T21:23:38.015Z,21.31
2022-11-08T21:25:36.230Z,21.25
2022-11-08T21:27:37.141Z,21.25
2022-11-08T21:29:35.353Z,21.25
2022-11-08T21:31:33.380Z,21.19
2022-11-08T21:33:31.376Z,21.19
2022-11-08T21:35:29.390Z,21.19
2022-11-08T21:37:27.430Z,21.13
2022-11-08T21:39:25.483Z,21.13
2022-11-08T21:41:23.527Z,22.69
2022-11-08T21:43:21.566Z,22.56
2022-11-08T21:45:19.794Z,22.75
2022-11-08T21:47:18.012Z,22.94
2022-11-08T21:49:16.052Z,23.13
2022-11-08T21:51:14.278Z,23.31
2022-11-08T21:53:12.334Z,23.50
2022-11-08T21:55:10.767Z,23.69
2022-11-08T21:57:08.813Z,23.81
2022-11-08T21:59:06.889Z,23.94
2022-11-08T22:01:05.209Z,24.00
2022-11-08T22:03:03.674Z,24.13
2022-11-08T22:05:01.697Z,24.13
2022-11-08T22:06:59.732Z,23.94
2022-11-08T22:08:58.005Z,23.13
2022-11-08T22:10:56.248Z,23.00
2022-11-08T22:12:54.301Z,22.88
2022-11-08T22:14:53.419Z,22.81
2022-11-08T22:16:51.493Z,22.75
2022-11-08T22:19:04.326Z,22.63
2022-11-08T22:21:20.760Z,22.56
2022-11-08T22:23:18.748Z,22.44
2022-11-08T22:25:16.771Z,22.38
2022-11-08T22:27:15.044Z,22.31
2022-11-08T22:29:13.362Z,22.25
2022-11-08T22:31:11.409Z,22.19
2022-11-08T22:33:09.447Z,22.13
2022-11-08T22:35:07.509Z,22.06
2022-11-08T22:37:06.127Z,22.00
2022-11-08T22:39:04.471Z,21.94
2022-11-08T22:41:02.493Z,21.88
2022-11-08T22:43:00.644Z,21.81
2022-11-08T22:44:59.065Z,21.81
2022-11-08T22:46:57.339Z,21.75
2022-11-08T22:48:55.344Z,21.69
2022-11-08T22:50:53.550Z,21.63
2022-11-08T22:52:51.570Z,21.63
2022-11-08T22:54:49.974Z,21.56
2022-11-08T22:56:48.240Z,21.50
2022-11-08T22:58:46.349Z,21.50
2022-11-08T23:00:44.338Z,21.44
2022-11-08T23:02:42.739Z,21.44
2022-11-08T23:04:40.777Z,21.38
2022-11-08T23:06:39.288Z,21.38
2022-11-08T23:08:37.360Z,21.31
2022-11-08T23:10:56.140Z,21.31
2022-11-08T23:13:11.613Z,21.25
2022-11-08T23:15:27.462Z,21.19
2022-11-08T23:17:25.503Z,21.19
2022-11-08T23:19:41.482Z,21.19
2022-11-08T23:21:57.257Z,21.13
2022-11-08T23:24:13.061Z,21.13
2022-11-08T23:26:11.321Z,21.06
2022-11-08T23:28:27.142Z,21.06
2022-11-08T23:30:42.900Z,21.00
2022-11-08T23:32:41.003Z,21.00
2022-11-08T23:34:39.014Z,20.94
2022-11-08T23:36:37.302Z,20.94
2022-11-08T23:38:36.871Z,20.94
2022-11-08T23:40:52.772Z,20.88
2022-11-08T23:43:14.153Z,20.88
2022-11-08T23:45:12.237Z,20.88
2022-11-08T23:47:10.772Z,20.81
2022-11-08T23:49:09.080Z,20.81
2022-11-08T23:51:07.299Z,20.81
2022-11-08T23:53:05.354Z,20.75
2022-11-08T23:55:03.604Z,20.75
2022-11-08T23:57:01.610Z,20.75
2022-11-08T23:58:59.826Z,20.75
